Norfolk Ns (Chambers Fld) Airport Norfolk US
ICAO: KNGU
IATA: NGU
Category: Medium
Scheduled Services: No

Elevation: 17 ft
TransAlt. 18000 ft.

Airport Communications:
APP:118.9
ATIS:118.425
CLNC DEL:120.7
DEP:125.2
NAVYNORFOLK HELI GND:29.895
CHAMBERS GND:121.8
AMC/ATOC:130.65
NAVYNORFOLK HELI TWR:126.375
BASE OPS:126.375
METRO:27.16
CHAMBERS TWR:124.3

KNGU Zoom In..

If you have problems with the map follow the link
https://www.worldairports.se/pages/airport.php?
ICAO=KNGU

Runways:

(A) RW 10 length 8371 ft width 200 ft
ILS 108.95 / hdg 100

(B) RW 28 length 8371 ft width 200 ft
---- / hdg 280

Location; KNGU
Day. 13 / Time. 21.59 Zulu
* Altimeter: 29.99
* Temperature: 10° c. 50°f.
* Wind from: 030° Speed 11 kn.
Dewpoint: 09° c.
Visibility: 3 Statute Miles.
Clouds: Overcast 300 ft.
Conditions: Light Rain.Conditions: Mist.

KNGU 132159Z 03011KT 3SM -RA BR OVC003 10/09 A2999 RMK AO2 SLP155 P0000 T01000089 $


Wind From 030°
Speed 11 kn.

 
 
jpsmedia worldairports.se 2019   terms of use